sensor_id;sensor_type;location;lat;lon;timestamp;temperature;humidity
5136;DHT22;2586;48.710;9.202;2023-04-03T00:01:24;3.50;99.90
5136;DHT22;2586;48.710;9.202;2023-04-03T00:03:50;3.50;99.90
5136;DHT22;2586;48.710;9.202;2023-04-03T00:06:17;3.50;99.90
5136;DHT22;2586;48.710;9.202;2023-04-03T00:08:42;3.60;99.90
5136;DHT22;2586;48.710;9.202;2023-04-03T00:11:09;3.50;99.90
5136;DHT22;2586;48.710;9.202;2023-04-03T00:13:35;3.50;99.90
5136;DHT22;2586;48.710;9.202;2023-04-03T00:16:01;3.50;99.90
5136;DHT22;2586;48.710;9.202;2023-04-03T00:18:29;3.50;99.90
5136;DHT22;2586;48.710;9.202;2023-04-03T00:20:55;3.40;99.90
5136;DHT22;2586;48.710;9.202;2023-04-03T00:23:20;3.40;99.90
5136;DHT22;2586;48.710;9.202;2023-04-03T00:25:46;3.50;99.90
5136;DHT22;2586;48.710;9.202;2023-04-03T00:28:12;3.40;99.90
5136;DHT22;2586;48.710;9.202;2023-04-03T00:30:37;3.40;99.90
5136;DHT22;2586;48.710;9.202;2023-04-03T00:33:03;3.30;99.90
5136;DHT22;2586;48.710;9.202;2023-04-03T00:35:29;3.40;99.90
5136;DHT22;2586;48.710;9.202;2023-04-03T00:37:55;3.30;99.90
5136;DHT22;2586;48.710;9.202;2023-04-03T00:40:24;3.30;99.90
5136;DHT22;2586;48.710;9.202;2023-04-03T00:42:55;3.30;99.90
5136;DHT22;2586;48.710;9.202;2023-04-03T00:45:31;3.30;99.90
5136;DHT22;2586;48.710;9.202;2023-04-03T00:47:58;3.30;99.90
5136;DHT22;2586;48.710;9.202;2023-04-03T00:50:26;3.30;99.90
5136;DHT22;2586;48.710;9.202;2023-04-03T00:52:53;3.20;99.90
5136;DHT22;2586;48.710;9.202;2023-04-03T00:55:19;3.30;99.90
5136;DHT22;2586;48.710;9.202;2023-04-03T00:57:45;3.20;99.90
5136;DHT22;2586;48.710;9.202;2023-04-03T01:00:14;3.30;99.90
5136;DHT22;2586;48.710;9.202;2023-04-03T01:02:41;3.30;99.90
5136;DHT22;2586;48.710;9.202;2023-04-03T01:05:07;3.20;99.90
5136;DHT22;2586;48.710;9.202;2023-04-03T01:07:33;3.20;99.90
5136;DHT22;2586;48.710;9.202;2023-04-03T01:10:02;3.30;99.90
5136;DHT22;2586;48.710;9.202;2023-04-03T01:12:31;3.30;99.90
5136;DHT22;2586;48.710;9.202;2023-04-03T01:15:12;3.30;99.90
5136;DHT22;2586;48.710;9.202;2023-04-03T01:20:21;3.20;99.90
5136;DHT22;2586;48.710;9.202;2023-04-03T01:25:19;3.20;99.90
5136;DHT22;2586;48.710;9.202;2023-04-03T01:27:45;3.10;99.90
5136;DHT22;2586;48.710;9.202;2023-04-03T01:30:11;3.10;99.90
5136;DHT22;2586;48.710;9.202;2023-04-03T01:32:38;3.10;99.90
5136;DHT22;2586;48.710;9.202;2023-04-03T01:35:04;3.10;99.90
5136;DHT22;2586;48.710;9.202;2023-04-03T01:37:29;3.00;99.90
5136;DHT22;2586;48.710;9.202;2023-04-03T01:39:55;3.00;99.90
5136;DHT22;2586;48.710;9.202;2023-04-03T01:42:20;3.00;99.90
5136;DHT22;2586;48.710;9.202;2023-04-03T01:44:46;3.00;99.90
5136;DHT22;2586;48.710;9.202;2023-04-03T01:47:12;2.90;99.90
5136;DHT22;2586;48.710;9.202;2023-04-03T01:49:37;2.90;99.90
5136;DHT22;2586;48.710;9.202;2023-04-03T01:52:03;2.90;99.90
5136;DHT22;2586;48.710;9.202;2023-04-03T01:54:28;2.90;99.90
5136;DHT22;2586;48.710;9.202;2023-04-03T01:56:54;2.90;99.90
5136;DHT22;2586;48.710;9.202;2023-04-03T01:59:20;2.90;99.90
5136;DHT22;2586;48.710;9.202;2023-04-03T02:01:45;3.00;99.90
5136;DHT22;2586;48.710;9.202;2023-04-03T02:04:12;2.90;99.90
5136;DHT22;2586;48.710;9.202;2023-04-03T02:06:37;2.90;99.90
5136;DHT22;2586;48.710;9.202;2023-04-03T02:09:03;3.00;99.90
5136;DHT22;2586;48.710;9.202;2023-04-03T02:11:29;3.00;99.90
5136;DHT22;2586;48.710;9.202;2023-04-03T02:13:55;3.00;99.90
5136;DHT22;2586;48.710;9.202;2023-04-03T02:16:20;3.00;99.90
5136;DHT22;2586;48.710;9.202;2023-04-03T02:18:46;3.00;99.90
5136;DHT22;2586;48.710;9.202;2023-04-03T02:21:11;3.10;99.90
5136;DHT22;2586;48.710;9.202;2023-04-03T02:23:37;3.10;99.90
5136;DHT22;2586;48.710;9.202;2023-04-03T02:26:08;3.10;99.90
5136;DHT22;2586;48.710;9.202;2023-04-03T02:28:34;3.10;99.90
5136;DHT22;2586;48.710;9.202;2023-04-03T02:31:01;3.10;64.90
5136;DHT22;2586;48.710;9.202;2023-04-03T02:33:26;3.10;1.00
5136;DHT22;2586;48.710;9.202;2023-04-03T02:35:53;3.10;1.00
5136;DHT22;2586;48.710;9.202;2023-04-03T02:38:19;3.10;1.00
5136;DHT22;2586;48.710;9.202;2023-04-03T02:40:44;3.00;6.60
5136;DHT22;2586;48.710;9.202;2023-04-03T02:43:10;3.00;5.70
5136;DHT22;2586;48.710;9.202;2023-04-03T02:45:36;3.00;1.00
5136;DHT22;2586;48.710;9.202;2023-04-03T02:48:02;3.00;1.00
5136;DHT22;2586;48.710;9.202;2023-04-03T02:50:27;3.00;1.00
5136;DHT22;2586;48.710;9.202;2023-04-03T02:52:53;3.00;1.00
5136;DHT22;2586;48.710;9.202;2023-04-03T02:55:18;3.00;1.00
5136;DHT22;2586;48.710;9.202;2023-04-03T02:57:44;3.00;1.00
5136;DHT22;2586;48.710;9.202;2023-04-03T03:00:10;3.00;1.00
5136;DHT22;2586;48.710;9.202;2023-04-03T03:02:35;3.00;1.00
5136;DHT22;2586;48.710;9.202;2023-04-03T03:05:01;3.00;1.00
5136;DHT22;2586;48.710;9.202;2023-04-03T03:07:27;3.00;1.00
5136;DHT22;2586;48.710;9.202;2023-04-03T03:09:55;2.90;1.00
5136;DHT22;2586;48.710;9.202;2023-04-03T03:12:21;2.90;1.00
5136;DHT22;2586;48.710;9.202;2023-04-03T03:14:47;2.90;1.00
5136;DHT22;2586;48.710;9.202;2023-04-03T03:17:13;2.90;1.00
5136;DHT22;2586;48.710;9.202;2023-04-03T03:19:38;2.90;1.00
5136;DHT22;2586;48.710;9.202;2023-04-03T03:22:04;3.00;1.00
5136;DHT22;2586;48.710;9.202;2023-04-03T03:24:30;3.00;1.00
5136;DHT22;2586;48.710;9.202;2023-04-03T03:26:56;3.00;1.00
5136;DHT22;2586;48.710;9.202;2023-04-03T03:29:21;3.00;1.00
5136;DHT22;2586;48.710;9.202;2023-04-03T03:31:47;3.00;1.00
5136;DHT22;2586;48.710;9.202;2023-04-03T03:34:12;3.00;1.00
5136;DHT22;2586;48.710;9.202;2023-04-03T03:36:38;3.00;1.00
5136;DHT22;2586;48.710;9.202;2023-04-03T03:39:04;3.00;1.00
5136;DHT22;2586;48.710;9.202;2023-04-03T03:41:30;3.00;1.00
5136;DHT22;2586;48.710;9.202;2023-04-03T03:43:56;3.00;1.00
5136;DHT22;2586;48.710;9.202;2023-04-03T03:46:21;3.00;1.00
5136;DHT22;2586;48.710;9.202;2023-04-03T03:48:47;2.90;1.00
5136;DHT22;2586;48.710;9.202;2023-04-03T03:51:13;3.00;1.00
5136;DHT22;2586;48.710;9.202;2023-04-03T03:53:38;2.90;1.00
5136;DHT22;2586;48.710;9.202;2023-04-03T03:56:05;2.90;1.00
5136;DHT22;2586;48.710;9.202;2023-04-03T03:58:31;2.90;1.00
5136;DHT22;2586;48.710;9.202;2023-04-03T04:01:00;3.00;1.00
5136;DHT22;2586;48.710;9.202;2023-04-03T04:03:26;3.00;1.00
5136;DHT22;2586;48.710;9.202;2023-04-03T04:05:51;2.90;1.00
5136;DHT22;2586;48.710;9.202;2023-04-03T04:08:17;2.90;1.00
5136;DHT22;2586;48.710;9.202;2023-04-03T04:10:43;3.00;1.00
5136;DHT22;2586;48.710;9.202;2023-04-03T04:13:08;3.00;1.00
5136;DHT22;2586;48.710;9.202;2023-04-03T04:15:34;2.90;1.00
5136;DHT22;2586;48.710;9.202;2023-04-03T04:17:59;3.00;1.00
5136;DHT22;2586;48.710;9.202;2023-04-03T04:20:25;2.90;1.00
5136;DHT22;2586;48.710;9.202;2023-04-03T04:22:51;2.90;1.00
5136;DHT22;2586;48.710;9.202;2023-04-03T04:25:16;3.00;1.00
5136;DHT22;2586;48.710;9.202;2023-04-03T04:27:42;3.00;1.00
5136;DHT22;2586;48.710;9.202;2023-04-03T04:30:08;3.00;1.00
5136;DHT22;2586;48.710;9.202;2023-04-03T04:32:35;3.00;1.00
5136;DHT22;2586;48.710;9.202;2023-04-03T04:35:01;3.00;99.90
5136;DHT22;2586;48.710;9.202;2023-04-03T04:37:26;3.00;99.90
5136;DHT22;2586;48.710;9.202;2023-04-03T04:39:52;3.00;99.90
5136;DHT22;2586;48.710;9.202;2023-04-03T04:42:18;3.10;99.90
5136;DHT22;2586;48.710;9.202;2023-04-03T04:44:43;3.00;99.90
5136;DHT22;2586;48.710;9.202;2023-04-03T04:47:09;3.00;99.90
5136;DHT22;2586;48.710;9.202;2023-04-03T04:49:34;3.00;99.90
5136;DHT22;2586;48.710;9.202;2023-04-03T04:52:00;3.00;99.90
5136;DHT22;2586;48.710;9.202;2023-04-03T04:54:25;3.00;99.90
5136;DHT22;2586;48.710;9.202;2023-04-03T04:56:51;3.00;99.90
5136;DHT22;2586;48.710;9.202;2023-04-03T04:59:17;3.00;99.90
5136;DHT22;2586;48.710;9.202;2023-04-03T05:01:42;3.00;99.90
5136;DHT22;2586;48.710;9.202;2023-04-03T05:04:08;3.00;99.90
5136;DHT22;2586;48.710;9.202;2023-04-03T05:06:34;3.00;99.90
5136;DHT22;2586;48.710;9.202;2023-04-03T05:09:01;3.10;99.90
5136;DHT22;2586;48.710;9.202;2023-04-03T05:11:26;3.00;99.90
5136;DHT22;2586;48.710;9.202;2023-04-03T05:13:52;3.00;99.90
5136;DHT22;2586;48.710;9.202;2023-04-03T05:16:18;3.10;99.90
5136;DHT22;2586;48.710;9.202;2023-04-03T05:18:43;3.10;99.90
5136;DHT22;2586;48.710;9.202;2023-04-03T05:21:09;3.10;99.90
5136;DHT22;2586;48.710;9.202;2023-04-03T05:23:34;3.10;99.90
5136;DHT22;2586;48.710;9.202;2023-04-03T05:26:00;3.20;99.90
5136;DHT22;2586;48.710;9.202;2023-04-03T05:28:25;3.20;99.90
5136;DHT22;2586;48.710;9.202;2023-04-03T05:30:55;3.20;99.90
5136;DHT22;2586;48.710;9.202;2023-04-03T05:33:22;3.20;99.90
5136;DHT22;2586;48.710;9.202;2023-04-03T05:35:48;3.30;99.90
5136;DHT22;2586;48.710;9.202;2023-04-03T05:38:13;3.30;99.90
5136;DHT22;2586;48.710;9.202;2023-04-03T05:40:39;3.40;99.90
5136;DHT22;2586;48.710;9.202;2023-04-03T05:43:05;3.40;99.90
5136;DHT22;2586;48.710;9.202;2023-04-03T05:45:30;3.30;99.90
5136;DHT22;2586;48.710;9.202;2023-04-03T05:47:56;3.40;99.90
5136;DHT22;2586;48.710;9.202;2023-04-03T05:50:22;3.40;99.90
5136;DHT22;2586;48.710;9.202;2023-04-03T05:52:49;3.40;99.90
5136;DHT22;2586;48.710;9.202;2023-04-03T05:55:15;3.40;99.90
5136;DHT22;2586;48.710;9.202;2023-04-03T05:57:41;3.30;99.90
5136;DHT22;2586;48.710;9.202;2023-04-03T06:00:08;3.30;99.90
5136;DHT22;2586;48.710;9.202;2023-04-03T06:02:36;3.30;99.90
5136;DHT22;2586;48.710;9.202;2023-04-03T06:05:02;3.20;99.90
5136;DHT22;2586;48.710;9.202;2023-04-03T06:07:27;3.20;99.90
5136;DHT22;2586;48.710;9.202;2023-04-03T06:09:55;3.20;99.90
5136;DHT22;2586;48.710;9.202;2023-04-03T06:12:21;3.20;99.90
5136;DHT22;2586;48.710;9.202;2023-04-03T06:14:47;3.30;99.90
5136;DHT22;2586;48.710;9.202;2023-04-03T06:17:14;3.40;99.90
5136;DHT22;2586;48.710;9.202;2023-04-03T06:19:41;3.40;99.90
5136;DHT22;2586;48.710;9.202;2023-04-03T06:22:06;3.40;99.90
5136;DHT22;2586;48.710;9.202;2023-04-03T06:24:32;3.40;99.90
5136;DHT22;2586;48.710;9.202;2023-04-03T06:26:58;3.50;99.90
5136;DHT22;2586;48.710;9.202;2023-04-03T06:29:24;3.50;99.90
5136;DHT22;2586;48.710;9.202;2023-04-03T06:31:50;3.50;99.90
5136;DHT22;2586;48.710;9.202;2023-04-03T06:34:17;3.60;99.90
5136;DHT22;2586;48.710;9.202;2023-04-03T06:36:44;3.70;99.90
5136;DHT22;2586;48.710;9.202;2023-04-03T06:39:17;3.70;99.90
5136;DHT22;2586;48.710;9.202;2023-04-03T06:41:43;3.80;99.90
5136;DHT22;2586;48.710;9.202;2023-04-03T06:44:09;3.80;99.90
5136;DHT22;2586;48.710;9.202;2023-04-03T06:46:37;3.80;99.90
5136;DHT22;2586;48.710;9.202;2023-04-03T06:49:03;3.80;99.90
5136;DHT22;2586;48.710;9.202;2023-04-03T06:51:30;3.90;99.90
5136;DHT22;2586;48.710;9.202;2023-04-03T06:53:58;3.80;99.90
5136;DHT22;2586;48.710;9.202;2023-04-03T06:56:24;3.90;99.90
5136;DHT22;2586;48.710;9.202;2023-04-03T06:58:51;3.90;99.90
5136;DHT22;2586;48.710;9.202;2023-04-03T07:01:19;3.90;99.90
5136;DHT22;2586;48.710;9.202;2023-04-03T07:03:46;4.00;99.90
5136;DHT22;2586;48.710;9.202;2023-04-03T07:06:14;4.00;99.90
5136;DHT22;2586;48.710;9.202;2023-04-03T07:08:40;4.00;99.90
5136;DHT22;2586;48.710;9.202;2023-04-03T07:11:08;4.00;99.90
5136;DHT22;2586;48.710;9.202;2023-04-03T07:13:33;4.20;99.90
5136;DHT22;2586;48.710;9.202;2023-04-03T07:15:59;4.20;99.90
5136;DHT22;2586;48.710;9.202;2023-04-03T07:18:25;4.30;99.90
5136;DHT22;2586;48.710;9.202;2023-04-03T07:20:50;4.20;99.90
5136;DHT22;2586;48.710;9.202;2023-04-03T07:23:16;4.20;99.90
5136;DHT22;2586;48.710;9.202;2023-04-03T07:25:44;4.30;99.90
5136;DHT22;2586;48.710;9.202;2023-04-03T07:28:10;4.40;99.90
5136;DHT22;2586;48.710;9.202;2023-04-03T07:30:51;4.30;99.90
5136;DHT22;2586;48.710;9.202;2023-04-03T07:33:19;4.20;99.90
5136;DHT22;2586;48.710;9.202;2023-04-03T07:35:46;4.40;99.90
5136;DHT22;2586;48.710;9.202;2023-04-03T07:38:12;4.50;99.90
5136;DHT22;2586;48.710;9.202;2023-04-03T07:40:38;4.60;99.90
5136;DHT22;2586;48.710;9.202;2023-04-03T07:43:04;4.70;99.90
5136;DHT22;2586;48.710;9.202;2023-04-03T07:45:30;4.80;99.90
5136;DHT22;2586;48.710;9.202;2023-04-03T07:47:56;4.90;99.90
5136;DHT22;2586;48.710;9.202;2023-04-03T07:50:22;5.00;99.90
5136;DHT22;2586;48.710;9.202;2023-04-03T07:52:47;5.10;99.90
5136;DHT22;2586;48.710;9.202;2023-04-03T07:55:13;5.30;99.90
5136;DHT22;2586;48.710;9.202;2023-04-03T07:57:39;5.40;99.90
5136;DHT22;2586;48.710;9.202;2023-04-03T08:00:05;5.50;99.90
5136;DHT22;2586;48.710;9.202;2023-04-03T08:02:31;5.60;43.40
5136;DHT22;2586;48.710;9.202;2023-04-03T08:04:58;5.60;97.20
5136;DHT22;2586;48.710;9.202;2023-04-03T08:07:25;5.80;99.90
5136;DHT22;2586;48.710;9.202;2023-04-03T08:09:50;5.80;99.90
5136;DHT22;2586;48.710;9.202;2023-04-03T08:12:16;5.80;98.90
5136;DHT22;2586;48.710;9.202;2023-04-03T08:14:42;5.90;92.70
5136;DHT22;2586;48.710;9.202;2023-04-03T08:17:08;5.90;99.90
5136;DHT22;2586;48.710;9.202;2023-04-03T08:19:39;6.00;77.70
5136;DHT22;2586;48.710;9.202;2023-04-03T08:22:05;6.10;76.20
5136;DHT22;2586;48.710;9.202;2023-04-03T08:24:32;6.10;41.80
5136;DHT22;2586;48.710;9.202;2023-04-03T08:26:58;5.90;38.40
5136;DHT22;2586;48.710;9.202;2023-04-03T08:29:24;6.00;37.90
5136;DHT22;2586;48.710;9.202;2023-04-03T08:31:50;6.10;75.60
5136;DHT22;2586;48.710;9.202;2023-04-03T08:34:16;6.30;42.20
5136;DHT22;2586;48.710;9.202;2023-04-03T08:36:42;6.20;82.80
5136;DHT22;2586;48.710;9.202;2023-04-03T08:39:08;6.20;61.70
5136;DHT22;2586;48.710;9.202;2023-04-03T08:49:33;6.10;39.30
5136;DHT22;2586;48.710;9.202;2023-04-03T08:52:02;6.20;6.60
5136;DHT22;2586;48.710;9.202;2023-04-03T08:54:57;6.20;10.80
5136;DHT22;2586;48.710;9.202;2023-04-03T08:57:31;6.50;1.00
5136;DHT22;2586;48.710;9.202;2023-04-03T09:00:06;6.70;3.00
5136;DHT22;2586;48.710;9.202;2023-04-03T09:02:38;6.90;1.00
5136;DHT22;2586;48.710;9.202;2023-04-03T09:05:15;6.90;1.00
5136;DHT22;2586;48.710;9.202;2023-04-03T09:10:41;6.80;1.00
5136;DHT22;2586;48.710;9.202;2023-04-03T09:16:38;6.50;1.00
5136;DHT22;2586;48.710;9.202;2023-04-03T09:19:41;6.30;1.00
5136;DHT22;2586;48.710;9.202;2023-04-03T09:22:27;6.10;1.00
5136;DHT22;2586;48.710;9.202;2023-04-03T09:25:05;6.20;1.00
5136;DHT22;2586;48.710;9.202;2023-04-03T09:27:34;6.40;1.00
5136;DHT22;2586;48.710;9.202;2023-04-03T09:29:59;6.40;1.00
5136;DHT22;2586;48.710;9.202;2023-04-03T09:32:31;6.40;1.00
5136;DHT22;2586;48.710;9.202;2023-04-03T09:35:01;6.40;1.00
5136;DHT22;2586;48.710;9.202;2023-04-03T09:37:40;6.40;1.00
5136;DHT22;2586;48.710;9.202;2023-04-03T09:40:31;6.30;1.00
5136;DHT22;2586;48.710;9.202;2023-04-03T09:43:00;6.40;1.00
5136;DHT22;2586;48.710;9.202;2023-04-03T09:45:32;6.70;1.00
5136;DHT22;2586;48.710;9.202;2023-04-03T09:48:13;7.40;1.00
5136;DHT22;2586;48.710;9.202;2023-04-03T09:55:52;8.50;1.00
5136;DHT22;2586;48.710;9.202;2023-04-03T09:58:28;8.20;1.00
5136;DHT22;2586;48.710;9.202;2023-04-03T10:00:59;8.00;1.00
5136;DHT22;2586;48.710;9.202;2023-04-03T10:03:29;7.60;1.00
5136;DHT22;2586;48.710;9.202;2023-04-03T10:05:55;7.70;1.00
5136;DHT22;2586;48.710;9.202;2023-04-03T10:08:26;7.60;1.00
5136;DHT22;2586;48.710;9.202;2023-04-03T10:13:50;7.50;1.00
5136;DHT22;2586;48.710;9.202;2023-04-03T10:16:20;7.30;1.00
5136;DHT22;2586;48.710;9.202;2023-04-03T10:30:18;6.80;1.00
5136;DHT22;2586;48.710;9.202;2023-04-03T10:36:00;6.80;1.00
5136;DHT22;2586;48.710;9.202;2023-04-03T10:38:38;6.70;1.00
5136;DHT22;2586;48.710;9.202;2023-04-03T10:41:17;6.70;1.00
5136;DHT22;2586;48.710;9.202;2023-04-03T10:47:02;6.60;1.00
5136;DHT22;2586;48.710;9.202;2023-04-03T10:52:11;6.50;1.00
5136;DHT22;2586;48.710;9.202;2023-04-03T10:54:46;6.40;1.00
5136;DHT22;2586;48.710;9.202;2023-04-03T10:57:14;6.30;1.00
5136;DHT22;2586;48.710;9.202;2023-04-03T10:59:51;6.30;1.00
5136;DHT22;2586;48.710;9.202;2023-04-03T11:02:31;6.40;1.00
5136;DHT22;2586;48.710;9.202;2023-04-03T11:05:24;6.30;1.00
5136;DHT22;2586;48.710;9.202;2023-04-03T11:07:53;6.10;1.00
5136;DHT22;2586;48.710;9.202;2023-04-03T11:10:42;6.00;1.00
5136;DHT22;2586;48.710;9.202;2023-04-03T11:16:08;6.00;1.00
5136;DHT22;2586;48.710;9.202;2023-04-03T11:18:51;6.00;1.00
5136;DHT22;2586;48.710;9.202;2023-04-03T11:21:24;6.00;1.00
5136;DHT22;2586;48.710;9.202;2023-04-03T11:23:52;6.20;1.00
5136;DHT22;2586;48.710;9.202;2023-04-03T11:26:22;6.20;1.00
5136;DHT22;2586;48.710;9.202;2023-04-03T11:29:10;6.30;1.00
5136;DHT22;2586;48.710;9.202;2023-04-03T11:34:40;6.20;1.00
5136;DHT22;2586;48.710;9.202;2023-04-03T11:37:24;6.20;1.00
5136;DHT22;2586;48.710;9.202;2023-04-03T11:39:58;6.20;1.00
5136;DHT22;2586;48.710;9.202;2023-04-03T11:42:36;6.10;1.00
5136;DHT22;2586;48.710;9.202;2023-04-03T11:48:04;6.10;1.00
5136;DHT22;2586;48.710;9.202;2023-04-03T12:14:03;6.60;1.00
5136;DHT22;2586;48.710;9.202;2023-04-03T12:19:40;6.60;1.00
5136;DHT22;2586;48.710;9.202;2023-04-03T12:24:27;6.50;1.00
5136;DHT22;2586;48.710;9.202;2023-04-03T12:40:15;7.10;1.00
5136;DHT22;2586;48.710;9.202;2023-04-03T12:42:55;7.40;1.00
5136;DHT22;2586;48.710;9.202;2023-04-03T12:45:26;7.80;1.00
5136;DHT22;2586;48.710;9.202;2023-04-03T12:47:56;8.00;1.00
5136;DHT22;2586;48.710;9.202;2023-04-03T12:50:26;7.70;1.00
5136;DHT22;2586;48.710;9.202;2023-04-03T12:52:59;7.70;1.00
5136;DHT22;2586;48.710;9.202;2023-04-03T12:55:27;7.80;1.00
5136;DHT22;2586;48.710;9.202;2023-04-03T12:57:52;7.70;1.00
5136;DHT22;2586;48.710;9.202;2023-04-03T13:00:42;7.70;1.00
5136;DHT22;2586;48.710;9.202;2023-04-03T13:03:23;7.90;1.00
5136;DHT22;2586;48.710;9.202;2023-04-03T13:05:50;8.10;1.00
5136;DHT22;2586;48.710;9.202;2023-04-03T13:08:17;8.00;1.00
5136;DHT22;2586;48.710;9.202;2023-04-03T13:13:18;8.00;1.00
5136;DHT22;2586;48.710;9.202;2023-04-03T13:15:47;8.10;1.00
5136;DHT22;2586;48.710;9.202;2023-04-03T13:18:35;8.00;1.00
5136;DHT22;2586;48.710;9.202;2023-04-03T13:23:27;8.30;1.00
5136;DHT22;2586;48.710;9.202;2023-04-03T13:25:53;8.90;1.00
5136;DHT22;2586;48.710;9.202;2023-04-03T13:28:22;9.80;1.00
5136;DHT22;2586;48.710;9.202;2023-04-03T13:31:17;10.00;1.00
5136;DHT22;2586;48.710;9.202;2023-04-03T13:36:38;9.00;1.00
5136;DHT22;2586;48.710;9.202;2023-04-03T13:39:30;8.70;1.00
5136;DHT22;2586;48.710;9.202;2023-04-03T13:42:42;8.10;1.00
5136;DHT22;2586;48.710;9.202;2023-04-03T13:44:43;8.00;1.00
5136;DHT22;2586;48.710;9.202;2023-04-03T13:47:20;7.70;1.00
5136;DHT22;2586;48.710;9.202;2023-04-03T13:49:59;7.70;1.00
5136;DHT22;2586;48.710;9.202;2023-04-03T13:52:45;7.70;1.00
5136;DHT22;2586;48.710;9.202;2023-04-03T13:55:30;7.80;1.00
5136;DHT22;2586;48.710;9.202;2023-04-03T14:00:48;8.00;1.00
5136;DHT22;2586;48.710;9.202;2023-04-03T14:03:31;8.30;1.00
5136;DHT22;2586;48.710;9.202;2023-04-03T14:05:57;8.40;1.00
5136;DHT22;2586;48.710;9.202;2023-04-03T14:08:24;8.50;1.00
5136;DHT22;2586;48.710;9.202;2023-04-03T14:10:50;8.50;1.00
5136;DHT22;2586;48.710;9.202;2023-04-03T14:13:19;8.20;1.00
5136;DHT22;2586;48.710;9.202;2023-04-03T14:15:46;8.10;1.00
5136;DHT22;2586;48.710;9.202;2023-04-03T14:18:16;8.00;1.00
5136;DHT22;2586;48.710;9.202;2023-04-03T14:20:43;7.90;1.00
5136;DHT22;2586;48.710;9.202;2023-04-03T14:23:09;7.90;1.00
5136;DHT22;2586;48.710;9.202;2023-04-03T14:25:35;7.80;1.00
5136;DHT22;2586;48.710;9.202;2023-04-03T14:28:06;7.70;1.00
5136;DHT22;2586;48.710;9.202;2023-04-03T14:30:37;7.50;1.00
5136;DHT22;2586;48.710;9.202;2023-04-03T14:33:03;7.30;1.00
5136;DHT22;2586;48.710;9.202;2023-04-03T14:35:29;7.40;1.00
5136;DHT22;2586;48.710;9.202;2023-04-03T14:37:55;7.40;1.00
5136;DHT22;2586;48.710;9.202;2023-04-03T14:40:24;7.30;1.00
5136;DHT22;2586;48.710;9.202;2023-04-03T14:42:51;7.40;1.00
5136;DHT22;2586;48.710;9.202;2023-04-03T14:45:21;8.40;1.00
5136;DHT22;2586;48.710;9.202;2023-04-03T14:47:55;9.10;1.00
5136;DHT22;2586;48.710;9.202;2023-04-03T14:50:25;9.40;1.00
5136;DHT22;2586;48.710;9.202;2023-04-03T14:52:53;11.10;1.00
5136;DHT22;2586;48.710;9.202;2023-04-03T14:55:21;11.90;1.00
5136;DHT22;2586;48.710;9.202;2023-04-03T14:57:47;11.70;1.00
5136;DHT22;2586;48.710;9.202;2023-04-03T15:00:21;11.40;1.00
5136;DHT22;2586;48.710;9.202;2023-04-03T15:02:47;10.40;1.00
5136;DHT22;2586;48.710;9.202;2023-04-03T15:05:14;9.50;1.00
5136;DHT22;2586;48.710;9.202;2023-04-03T15:07:49;8.90;1.00
5136;DHT22;2586;48.710;9.202;2023-04-03T15:12:49;7.90;1.00
5136;DHT22;2586;48.710;9.202;2023-04-03T15:15:17;7.80;1.00
5136;DHT22;2586;48.710;9.202;2023-04-03T15:17:44;7.60;1.00
5136;DHT22;2586;48.710;9.202;2023-04-03T15:20:13;7.60;1.00
5136;DHT22;2586;48.710;9.202;2023-04-03T15:22:39;7.60;1.00
5136;DHT22;2586;48.710;9.202;2023-04-03T15:25:05;7.70;1.00
5136;DHT22;2586;48.710;9.202;2023-04-03T15:27:31;7.90;1.00
5136;DHT22;2586;48.710;9.202;2023-04-03T15:29:56;8.10;1.00
5136;DHT22;2586;48.710;9.202;2023-04-03T15:32:22;8.20;1.00
5136;DHT22;2586;48.710;9.202;2023-04-03T15:34:48;8.30;1.00
5136;DHT22;2586;48.710;9.202;2023-04-03T15:37:13;8.20;1.00
5136;DHT22;2586;48.710;9.202;2023-04-03T15:39:39;8.20;1.00
5136;DHT22;2586;48.710;9.202;2023-04-03T15:42:04;8.70;1.00
5136;DHT22;2586;48.710;9.202;2023-04-03T15:44:34;9.10;1.00
5136;DHT22;2586;48.710;9.202;2023-04-03T15:47:00;9.40;1.00
5136;DHT22;2586;48.710;9.202;2023-04-03T15:49:27;9.10;1.00
5136;DHT22;2586;48.710;9.202;2023-04-03T15:51:52;8.60;1.00
5136;DHT22;2586;48.710;9.202;2023-04-03T15:54:18;8.40;1.00
5136;DHT22;2586;48.710;9.202;2023-04-03T15:56:44;8.20;1.00
5136;DHT22;2586;48.710;9.202;2023-04-03T15:59:09;9.30;1.00
5136;DHT22;2586;48.710;9.202;2023-04-03T16:01:36;9.10;1.00
5136;DHT22;2586;48.710;9.202;2023-04-03T16:04:03;9.70;1.00
5136;DHT22;2586;48.710;9.202;2023-04-03T16:06:28;9.30;1.00
5136;DHT22;2586;48.710;9.202;2023-04-03T16:08:58;8.90;1.00
5136;DHT22;2586;48.710;9.202;2023-04-03T16:11:25;8.50;1.00
5136;DHT22;2586;48.710;9.202;2023-04-03T16:13:51;8.60;1.00
5136;DHT22;2586;48.710;9.202;2023-04-03T16:16:17;8.60;1.00
5136;DHT22;2586;48.710;9.202;2023-04-03T16:18:42;9.50;1.00
5136;DHT22;2586;48.710;9.202;2023-04-03T16:21:08;8.80;1.00
5136;DHT22;2586;48.710;9.202;2023-04-03T16:23:34;8.40;1.00
5136;DHT22;2586;48.710;9.202;2023-04-03T16:26:00;8.00;1.00
5136;DHT22;2586;48.710;9.202;2023-04-03T16:28:26;7.60;1.00
5136;DHT22;2586;48.710;9.202;2023-04-03T16:30:51;7.20;1.00
5136;DHT22;2586;48.710;9.202;2023-04-03T16:33:17;7.00;1.00
5136;DHT22;2586;48.710;9.202;2023-04-03T16:35:46;6.80;1.00
5136;DHT22;2586;48.710;9.202;2023-04-03T16:38:13;6.60;1.00
5136;DHT22;2586;48.710;9.202;2023-04-03T16:40:39;6.50;1.00
5136;DHT22;2586;48.710;9.202;2023-04-03T16:43:04;6.50;1.00
5136;DHT22;2586;48.710;9.202;2023-04-03T16:45:30;6.60;1.00
5136;DHT22;2586;48.710;9.202;2023-04-03T16:47:56;6.60;1.00
5136;DHT22;2586;48.710;9.202;2023-04-03T16:50:21;6.70;1.00
5136;DHT22;2586;48.710;9.202;2023-04-03T16:52:47;6.70;1.00
5136;DHT22;2586;48.710;9.202;2023-04-03T16:55:13;6.70;1.00
5136;DHT22;2586;48.710;9.202;2023-04-03T16:57:38;6.80;1.00
5136;DHT22;2586;48.710;9.202;2023-04-03T17:00:04;6.90;1.00
5136;DHT22;2586;48.710;9.202;2023-04-03T17:02:31;7.10;1.00
5136;DHT22;2586;48.710;9.202;2023-04-03T17:04:57;7.20;1.00
5136;DHT22;2586;48.710;9.202;2023-04-03T17:07:23;7.30;1.00
5136;DHT22;2586;48.710;9.202;2023-04-03T17:09:49;7.30;1.00
5136;DHT22;2586;48.710;9.202;2023-04-03T17:12:15;7.20;1.00
5136;DHT22;2586;48.710;9.202;2023-04-03T17:14:41;7.10;1.00
5136;DHT22;2586;48.710;9.202;2023-04-03T17:17:08;7.00;1.00
5136;DHT22;2586;48.710;9.202;2023-04-03T17:19:35;6.90;1.00
5136;DHT22;2586;48.710;9.202;2023-04-03T17:22:01;6.70;1.00
5136;DHT22;2586;48.710;9.202;2023-04-03T17:24:27;6.50;1.00
5136;DHT22;2586;48.710;9.202;2023-04-03T17:26:53;6.40;1.00
5136;DHT22;2586;48.710;9.202;2023-04-03T17:29:18;6.30;1.00
5136;DHT22;2586;48.710;9.202;2023-04-03T17:31:44;6.30;1.00
5136;DHT22;2586;48.710;9.202;2023-04-03T17:34:10;6.10;1.00
5136;DHT22;2586;48.710;9.202;2023-04-03T17:36:38;6.00;1.00
5136;DHT22;2586;48.710;9.202;2023-04-03T17:39:04;5.90;1.00
5136;DHT22;2586;48.710;9.202;2023-04-03T17:41:30;5.80;1.00
5136;DHT22;2586;48.710;9.202;2023-04-03T17:43:56;5.70;1.00
5136;DHT22;2586;48.710;9.202;2023-04-03T17:46:22;5.70;1.00
5136;DHT22;2586;48.710;9.202;2023-04-03T17:48:49;5.60;1.00
5136;DHT22;2586;48.710;9.202;2023-04-03T17:51:18;5.60;1.00
5136;DHT22;2586;48.710;9.202;2023-04-03T17:53:46;5.50;1.00
5136;DHT22;2586;48.710;9.202;2023-04-03T17:56:14;5.50;1.00
5136;DHT22;2586;48.710;9.202;2023-04-03T17:58:40;5.50;1.00
5136;DHT22;2586;48.710;9.202;2023-04-03T18:03:41;5.40;1.00
5136;DHT22;2586;48.710;9.202;2023-04-03T18:06:13;5.40;1.00
5136;DHT22;2586;48.710;9.202;2023-04-03T18:08:47;5.30;1.00
5136;DHT22;2586;48.710;9.202;2023-04-03T18:11:13;5.20;1.00
5136;DHT22;2586;48.710;9.202;2023-04-03T18:13:40;5.20;1.00
5136;DHT22;2586;48.710;9.202;2023-04-03T18:16:07;5.10;1.00
5136;DHT22;2586;48.710;9.202;2023-04-03T18:18:34;5.10;1.00
5136;DHT22;2586;48.710;9.202;2023-04-03T18:21:00;5.10;1.00
5136;DHT22;2586;48.710;9.202;2023-04-03T18:23:27;5.00;1.00
5136;DHT22;2586;48.710;9.202;2023-04-03T18:25:54;5.00;1.00
5136;DHT22;2586;48.710;9.202;2023-04-03T18:28:20;4.90;1.00